Time;durP1;ratioP1;P1;durP2;ratioP2;P2;SDS_P1;SDS_P2;PMS_P1;PMS_P2;Temp;Humidity;BMP_temperature;BMP_pressure;BME280_temperature;BME280_humidity;BME280_pressure;Samples;Min_cycle;Max_cycle;Signal;HPM_P1;HPM_P2
2023/06/02 00:03:33;;;;;;;7.33;4.53;;;;;12.80;101615.00;;;;10505874;28;21256;-73
2023/06/02 00:08:40;;;;;;;5.50;3.70;;;;;12.80;101615.00;;;;10516302;28;20221;-73
2023/06/02 00:13:42;;;;;;;6.43;4.17;;;;;12.80;101623.00;;;;10511948;28;20217;-80
2023/06/02 00:18:45;;;;;;;4.80;3.63;;;;;12.80;101617.00;;;;10503541;28;20199;-77
2023/06/02 00:23:47;;;;;;;6.33;4.50;;;;;12.90;101608.00;;;;10480211;28;20193;-74
2023/06/02 00:28:51;;;;;;;5.63;4.23;;;;;12.90;101614.00;;;;10532355;28;20274;-84
2023/06/02 00:33:53;;;;;;;6.50;4.50;;;;;12.90;101616.00;;;;10559516;27;20185;-77
2023/06/02 00:38:55;;;;;;;6.33;4.37;;;;;12.90;101606.00;;;;10521591;28;20216;-75
2023/06/02 00:43:57;;;;;;;5.13;4.23;;;;;12.80;101618.00;;;;10501183;28;20236;-75
2023/06/02 00:49:00;;;;;;;5.43;3.80;;;;;12.70;101608.00;;;;10479588;28;20213;-75
2023/06/02 00:54:02;;;;;;;7.17;4.00;;;;;12.70;101603.00;;;;10515752;28;21198;-77
2023/06/02 00:59:06;;;;;;;8.37;3.60;;;;;12.50;101612.00;;;;10409770;28;20632;-79
2023/06/02 01:04:08;;;;;;;6.03;3.60;;;;;12.50;101605.00;;;;10409227;28;20231;-76
2023/06/02 01:09:13;;;;;;;8.20;4.03;;;;;12.50;101613.00;;;;10403971;28;20531;-80
2023/06/02 01:14:15;;;;;;;7.03;4.10;;;;;12.40;101617.00;;;;10418565;27;20290;-76
2023/06/02 01:19:21;;;;;;;6.30;4.00;;;;;12.40;101609.00;;;;10409461;28;20674;-79
2023/06/02 01:24:40;;;;;;;8.50;4.43;;;;;12.40;101613.00;;;;10403602;28;20216;-77
2023/06/02 01:29:44;;;;;;;9.37;6.13;;;;;12.30;101620.00;;;;10405881;28;20592;-75
2023/06/02 01:35:03;;;;;;;9.33;5.00;;;;;12.30;101617.00;;;;10406099;28;20243;-76
2023/06/02 01:40:07;;;;;;;12.37;4.50;;;;;12.30;101607.00;;;;10491920;28;20206;-80
2023/06/02 01:45:10;;;;;;;6.60;4.77;;;;;12.30;101618.00;;;;10515733;28;20220;-74
2023/06/02 01:50:12;;;;;;;5.13;3.90;;;;;12.30;101615.00;;;;10512927;28;20217;-76
2023/06/02 01:55:14;;;;;;;7.50;3.93;;;;;12.20;101613.00;;;;10486258;28;20265;-84
2023/06/02 02:00:17;;;;;;;7.40;4.23;;;;;12.20;101612.00;;;;10512205;28;20227;-84
2023/06/02 02:05:20;;;;;;;9.23;3.83;;;;;12.20;101599.00;;;;10514156;28;20201;-84
2023/06/02 02:10:22;;;;;;;11.40;3.83;;;;;12.20;101608.00;;;;10520262;28;20240;-81
2023/06/02 02:15:24;;;;;;;8.20;3.70;;;;;12.20;101599.00;;;;10522520;28;20273;-78
2023/06/02 02:20:26;;;;;;;8.53;3.47;;;;;12.20;101615.00;;;;10513533;28;20221;-83
2023/06/02 02:25:28;;;;;;;4.53;3.60;;;;;12.20;101601.00;;;;10505817;28;20299;-84
2023/06/02 02:30:30;;;;;;;7.83;3.70;;;;;12.20;101604.00;;;;10506634;28;20312;-84
2023/06/02 02:35:33;;;;;;;11.57;5.03;;;;;12.10;101606.00;;;;10515529;28;20192;-84
2023/06/02 02:40:36;;;;;;;6.97;4.37;;;;;12.00;101612.00;;;;10525058;28;20202;-85
2023/06/02 02:45:38;;;;;;;6.97;3.90;;;;;11.90;101613.00;;;;10512740;28;20213;-83
2023/06/02 02:50:40;;;;;;;7.50;3.40;;;;;11.70;101613.00;;;;10516346;28;20259;-75
2023/06/02 02:55:44;;;;;;;10.17;4.30;;;;;11.70;101621.00;;;;10516997;27;20284;-76
2023/06/02 03:00:47;;;;;;;8.27;3.40;;;;;11.70;101619.00;;;;10510170;28;20808;-83
2023/06/02 03:05:50;;;;;;;9.73;3.70;;;;;11.60;101624.00;;;;10508852;28;20555;-84
2023/06/02 03:10:54;;;;;;;9.87;3.43;;;;;11.60;101627.00;;;;10531007;28;20686;-83
2023/06/02 03:15:56;;;;;;;7.80;3.50;;;;;11.60;101637.00;;;;10502597;28;20205;-83
2023/06/02 03:20:58;;;;;;;9.37;3.97;;;;;11.60;101630.00;;;;10477572;28;20288;-82
2023/06/02 03:26:02;;;;;;;7.57;3.60;;;;;11.60;101630.00;;;;10470693;28;20194;-83
2023/06/02 03:31:05;;;;;;;6.37;3.47;;;;;11.50;101623.00;;;;10489288;28;20221;-73
2023/06/02 03:36:07;;;;;;;11.03;3.53;;;;;11.60;101622.00;;;;10502170;28;20220;-73
2023/06/02 03:41:12;;;;;;;9.17;3.57;;;;;11.60;101626.00;;;;10502003;28;20201;-73
2023/06/02 03:46:15;;;;;;;11.23;3.77;;;;;11.60;101628.00;;;;10502241;28;20189;-73
2023/06/02 03:51:17;;;;;;;19.03;4.13;;;;;11.60;101626.00;;;;10503177;28;20256;-73
2023/06/02 03:56:19;;;;;;;7.97;3.50;;;;;11.70;101620.00;;;;10521520;28;20236;-73
2023/06/02 04:01:23;;;;;;;11.43;3.37;;;;;11.70;101621.00;;;;10492199;28;20205;-73
2023/06/02 04:06:28;;;;;;;9.30;3.40;;;;;11.80;101632.00;;;;10500186;28;20569;-73
2023/06/02 04:11:30;;;;;;;12.43;4.00;;;;;11.80;101614.00;;;;10507083;28;20564;-73
2023/06/02 04:16:32;;;;;;;14.47;3.57;;;;;11.80;101619.00;;;;10509743;28;20201;-73
2023/06/02 04:21:36;;;;;;;15.13;3.40;;;;;11.90;101618.00;;;;10516626;28;20605;-73
2023/06/02 04:26:38;;;;;;;13.67;4.07;;;;;11.90;101624.00;;;;10514558;28;20282;-73
2023/06/02 04:31:43;;;;;;;12.23;4.23;;;;;12.00;101632.00;;;;10508767;28;20216;-73
2023/06/02 04:36:50;;;;;;;14.17;3.60;;;;;12.10;101638.00;;;;10515228;28;20206;-73
2023/06/02 04:41:56;;;;;;;8.63;3.40;;;;;12.10;101640.00;;;;10474246;28;20225;-73
2023/06/02 04:46:59;;;;;;;8.67;3.53;;;;;12.20;101632.00;;;;10510686;28;20246;-73
2023/06/02 04:52:07;;;;;;;11.37;3.20;;;;;12.20;101625.00;;;;10459106;28;20214;-73
2023/06/02 04:57:09;;;;;;;9.27;3.87;;;;;12.30;101635.00;;;;10474811;28;20202;-73
2023/06/02 05:02:13;;;;;;;8.10;3.53;;;;;12.30;101647.00;;;;10473946;28;20674;-73
2023/06/02 05:07:16;;;;;;;15.67;4.17;;;;;12.40;101637.00;;;;10481959;28;20221;-73
2023/06/02 05:12:18;;;;;;;12.97;3.87;;;;;12.50;101638.00;;;;10481918;28;20209;-73
2023/06/02 05:17:23;;;;;;;11.57;4.03;;;;;12.50;101643.00;;;;10508728;28;20592;-73
2023/06/02 05:22:27;;;;;;;17.80;4.30;;;;;12.60;101649.00;;;;10517605;28;20657;-73
2023/06/02 05:27:29;;;;;;;13.07;4.47;;;;;12.60;101652.00;;;;10540042;28;20654;-73
2023/06/02 05:32:33;;;;;;;8.90;4.00;;;;;12.60;101649.00;;;;10540066;28;20211;-73
2023/06/02 05:37:37;;;;;;;16.27;4.43;;;;;12.70;101649.00;;;;10539911;28;20189;-73
2023/06/02 05:42:41;;;;;;;11.40;3.77;;;;;12.80;101651.00;;;;10506254;28;20205;-73
2023/06/02 05:47:43;;;;;;;8.50;3.97;;;;;12.80;101653.00;;;;10540341;28;20658;-73
2023/06/02 05:52:45;;;;;;;13.73;4.00;;;;;12.80;101659.00;;;;10539731;28;20205;-73
2023/06/02 05:57:47;;;;;;;14.03;4.13;;;;;12.90;101638.00;;;;10541316;28;20242;-73
2023/06/02 06:02:50;;;;;;;18.93;4.60;;;;;13.00;101661.00;;;;10523686;28;20670;-73
2023/06/02 06:07:59;;;;;;;10.43;4.23;;;;;13.10;101651.00;;;;10499960;28;20205;-73
2023/06/02 06:13:02;;;;;;;12.27;4.10;;;;;13.20;101653.00;;;;10512011;28;20715;-73
2023/06/02 06:18:04;;;;;;;17.37;4.70;;;;;13.40;101657.00;;;;10523707;28;20205;-73
2023/06/02 06:23:07;;;;;;;10.23;4.20;;;;;13.60;101650.00;;;;10509826;28;20201;-74
2023/06/02 06:28:09;;;;;;;12.23;4.87;;;;;13.70;101652.00;;;;10484895;28;20209;-74
2023/06/02 06:33:12;;;;;;;8.40;4.50;;;;;13.80;101657.00;;;;10544230;28;20646;-73
2023/06/02 06:38:14;;;;;;;10.70;5.47;;;;;14.00;101653.00;;;;10530687;28;20246;-73
2023/06/02 06:43:16;;;;;;;9.83;4.70;;;;;14.10;101655.00;;;;10537052;28;20223;-74
2023/06/02 06:48:27;;;;;;;9.77;5.37;;;;;14.40;101654.00;;;;10512214;28;20212;-73
2023/06/02 06:53:29;;;;;;;11.90;4.53;;;;;14.70;101656.00;;;;10516715;28;20303;-74
2023/06/02 06:58:31;;;;;;;6.10;3.03;;;;;14.80;101666.00;;;;10509574;28;20205;-74
2023/06/02 07:03:33;;;;;;;7.57;3.17;;;;;14.80;101664.00;;;;10521224;28;20588;-74
2023/06/02 07:08:36;;;;;;;12.60;3.47;;;;;15.00;101662.00;;;;10527465;28;20232;-73
2023/06/02 07:13:38;;;;;;;9.00;2.80;;;;;15.50;101668.00;;;;10496593;28;20218;-74
2023/06/02 07:18:41;;;;;;;12.10;3.37;;;;;15.70;101665.00;;;;10521803;28;20197;-74
2023/06/02 07:23:43;;;;;;;7.70;2.93;;;;;15.90;101662.00;;;;10525028;28;20193;-74
2023/06/02 07:28:45;;;;;;;15.43;3.83;;;;;16.20;101666.00;;;;10522631;28;20247;-73
2023/06/02 07:33:47;;;;;;;7.10;3.07;;;;;16.30;101672.00;;;;10509020;28;20218;-74
2023/06/02 07:38:50;;;;;;;8.03;3.23;;;;;16.50;101670.00;;;;10517950;28;20201;-76
2023/06/02 07:43:52;;;;;;;9.03;3.33;;;;;16.70;101663.00;;;;10504482;28;20201;-73
2023/06/02 07:48:54;;;;;;;8.67;2.43;;;;;16.70;101664.00;;;;10515295;28;20562;-73
2023/06/02 07:53:56;;;;;;;5.13;2.67;;;;;16.80;101662.00;;;;10511450;28;20274;-73
2023/06/02 07:58:58;;;;;;;8.60;3.50;;;;;17.10;101665.00;;;;10524467;28;20227;-73
2023/06/02 08:04:00;;;;;;;7.77;2.93;;;;;17.30;101664.00;;;;10519218;28;20258;-74
2023/06/02 08:09:04;;;;;;;10.25;4.07;;;;;17.40;101665.00;;;;10499366;28;20205;-74
2023/06/02 08:14:06;;;;;;;8.52;3.10;;;;;17.30;101667.00;;;;10516566;28;20229;-74
2023/06/02 08:19:10;;;;;;;6.45;3.10;;;;;17.60;101665.00;;;;10513520;28;20201;-74
2023/06/02 08:24:13;;;;;;;14.43;3.50;;;;;18.10;101664.00;;;;10517247;28;20205;-73
2023/06/02 08:29:15;;;;;;;10.35;3.95;;;;;18.00;101664.00;;;;10501753;28;20696;-73
2023/06/02 08:34:20;;;;;;;6.75;3.35;;;;;18.20;101667.00;;;;10512810;28;20301;-73
2023/06/02 08:39:25;;;;;;;9.82;3.80;;;;;18.30;101655.00;;;;10541123;28;20246;-74
2023/06/02 08:44:29;;;;;;;9.52;3.10;;;;;18.60;101661.00;;;;10500874;28;20208;-73
2023/06/02 08:49:34;;;;;;;11.18;3.80;;;;;18.90;101661.00;;;;10510932;28;20212;-76
2023/06/02 08:54:39;;;;;;;8.82;3.13;;;;;19.10;101659.00;;;;10496132;28;20300;-73
2023/06/02 08:59:43;;;;;;;13.35;3.58;;;;;19.50;101667.00;;;;10502423;28;20654;-73
2023/06/02 09:04:45;;;;;;;9.05;3.58;;;;;19.40;101657.00;;;;10512856;28;20217;-73
2023/06/02 09:09:51;;;;;;;8.98;3.13;;;;;19.80;101661.00;;;;10509740;28;20554;-73
2023/06/02 09:15:10;;;;;;;9.13;3.67;;;;;19.90;101659.00;;;;10536336;28;20200;-73
2023/06/02 09:20:12;;;;;;;11.65;3.63;;;;;20.20;101663.00;;;;10505526;28;20288;-73
2023/06/02 09:25:22;;;;;;;8.40;3.72;;;;;19.80;101654.00;;;;10532120;28;20223;-74
2023/06/02 09:30:25;;;;;;;8.88;4.22;;;;;19.70;101662.00;;;;10529036;28;20660;-74
2023/06/02 09:35:40;;;;;;;8.52;3.75;;;;;20.30;101663.00;;;;10525666;28;20234;-73
2023/06/02 09:40:44;;;;;;;10.98;4.05;;;;;20.30;101658.00;;;;10524229;28;20193;-73
2023/06/02 09:45:49;;;;;;;10.13;3.70;;;;;21.90;101661.00;;;;10498570;28;20203;-73
2023/06/02 09:50:51;;;;;;;9.57;4.00;;;;;21.90;101656.00;;;;10520870;28;20690;-73
2023/06/02 09:55:53;;;;;;;8.85;3.33;;;;;21.00;101659.00;;;;10498256;28;20213;-73
2023/06/02 10:00:55;;;;;;;10.20;3.90;;;;;21.20;101634.00;;;;10516461;28;20193;-73
2023/06/02 10:06:12;;;;;;;7.55;3.38;;;;;22.90;101638.00;;;;10520732;28;20201;-73
2023/06/02 10:11:27;;;;;;;9.73;3.78;;;;;24.80;101635.00;;;;10536150;28;20220;-73
2023/06/02 10:16:36;;;;;;;9.77;3.80;;;;;25.00;101635.00;;;;10514720;28;20198;-74
2023/06/02 10:21:53;;;;;;;9.32;3.85;;;;;25.50;101647.00;;;;10517302;28;20193;-74
2023/06/02 10:27:29;;;;;;;6.88;3.53;;;;;25.10;101647.00;;;;10520544;27;20197;-75
2023/06/02 10:32:42;;;;;;;10.77;4.15;;;;;25.90;101639.00;;;;10513694;28;20213;-73
2023/06/02 10:37:45;;;;;;;8.60;3.78;;;;;25.20;101630.00;;;;10525877;28;20595;-75
2023/06/02 10:43:10;;;;;;;10.90;3.03;;;;;25.30;101625.00;;;;10524768;28;20197;-74
2023/06/02 10:48:45;;;;;;;8.38;3.28;;;;;25.10;101619.00;;;;10532654;28;20196;-73
2023/06/02 10:53:59;;;;;;;8.05;3.22;;;;;25.20;101609.00;;;;10497167;28;20261;-74
2023/06/02 10:59:01;;;;;;;10.45;3.40;;;;;25.40;101620.00;;;;10527196;28;20209;-74
2023/06/02 11:04:33;;;;;;;7.38;3.35;;;;;25.80;101617.00;;;;10534653;28;20240;-75
2023/06/02 11:09:35;;;;;;;7.93;3.58;;;;;26.40;101607.00;;;;10516281;28;20219;-74
2023/06/02 11:15:04;;;;;;;7.93;3.33;;;;;26.80;101605.00;;;;10519330;28;20218;-74
2023/06/02 11:20:07;;;;;;;12.20;3.47;;;;;27.60;101620.00;;;;10520193;28;20204;-74
2023/06/02 11:25:11;;;;;;;12.60;3.83;;;;;26.40;101606.00;;;;10531245;28;20201;-74
2023/06/02 11:30:17;;;;;;;9.18;3.40;;;;;27.10;101609.00;;;;10474409;28;21002;-76
2023/06/02 11:35:23;;;;;;;7.50;3.28;;;;;26.80;101606.00;;;;10487245;28;20369;-75
2023/06/02 11:40:28;;;;;;;7.22;3.42;;;;;27.10;101595.00;;;;10485618;28;20228;-75
2023/06/02 11:45:31;;;;;;;8.25;3.28;;;;;26.70;101589.00;;;;10501965;28;20236;-75
2023/06/02 11:50:33;;;;;;;8.23;3.38;;;;;26.50;101584.00;;;;10503998;28;21465;-75
2023/06/02 11:55:35;;;;;;;13.13;3.80;;;;;27.60;101580.00;;;;10531787;27;20209;-74
2023/06/02 12:00:38;;;;;;;9.52;3.65;;;;;27.60;101583.00;;;;10497403;28;20193;-75
2023/06/02 12:05:44;;;;;;;10.32;3.45;;;;;27.40;101566.00;;;;10514801;28;20193;-75
2023/06/02 12:10:47;;;;;;;7.32;3.20;;;;;27.70;101560.00;;;;10514974;28;20578;-75
2023/06/02 12:15:49;;;;;;;11.30;3.75;;;;;27.50;101559.00;;;;10521274;28;20208;-74
2023/06/02 12:20:53;;;;;;;11.93;3.78;;;;;27.70;101563.00;;;;10501775;28;20208;-74
2023/06/02 12:25:59;;;;;;;11.07;3.63;;;;;27.10;101555.00;;;;10502736;28;20262;-75
2023/06/02 12:31:01;;;;;;;8.07;3.78;;;;;27.30;101559.00;;;;10431862;28;20562;-73
2023/06/02 12:36:03;;;;;;;8.75;3.35;;;;;26.20;101558.00;;;;10517609;28;20255;-75
2023/06/02 12:41:12;;;;;;;9.32;3.70;;;;;26.30;101557.00;;;;10488713;28;20677;-74
2023/06/02 12:46:16;;;;;;;13.15;4.15;;;;;26.50;101550.00;;;;10499082;28;20201;-74
2023/06/02 12:51:18;;;;;;;7.85;3.65;;;;;26.80;101553.00;;;;10525980;28;20219;-74
2023/06/02 12:56:21;;;;;;;11.60;3.75;;;;;26.70;101547.00;;;;10499163;28;20205;-74
2023/06/02 13:01:23;;;;;;;13.30;3.83;;;;;26.50;101550.00;;;;10515485;28;20196;-75
2023/06/02 13:06:25;;;;;;;9.45;3.28;;;;;26.70;101542.00;;;;10519169;28;20224;-73
2023/06/02 13:11:28;;;;;;;10.52;3.30;;;;;27.10;101530.00;;;;10508409;28;20221;-75
2023/06/02 13:16:31;;;;;;;11.50;4.03;;;;;27.10;101538.00;;;;10525316;28;20205;-73
2023/06/02 13:21:33;;;;;;;11.27;3.88;;;;;26.90;101542.00;;;;10526297;28;20205;-73
2023/06/02 13:26:35;;;;;;;9.50;3.97;;;;;26.30;101533.00;;;;10527457;28;20224;-73
2023/06/02 13:31:38;;;;;;;8.73;3.58;;;;;26.30;101537.00;;;;10519936;28;20221;-73
2023/06/02 13:36:40;;;;;;;12.73;3.60;;;;;26.30;101531.00;;;;10507683;28;20205;-74
2023/06/02 13:41:42;;;;;;;11.88;3.53;;;;;26.80;101526.00;;;;10520189;28;20197;-74
2023/06/02 13:46:46;;;;;;;8.50;3.33;;;;;26.60;101533.00;;;;10509317;28;20204;-74
2023/06/02 13:51:49;;;;;;;11.63;4.20;;;;;26.30;101518.00;;;;10500591;28;20613;-73
2023/06/02 13:56:51;;;;;;;12.55;4.57;;;;;26.30;101513.00;;;;10511114;28;20624;-73
2023/06/02 14:01:53;;;;;;;10.73;3.80;;;;;26.40;101518.00;;;;10470266;28;20212;-73
2023/06/02 14:06:55;;;;;;;8.52;4.20;;;;;26.30;101516.00;;;;10515624;28;20292;-74
2023/06/02 14:11:57;;;;;;;12.15;4.15;;;;;26.30;101517.00;;;;10527456;28;20258;-76
2023/06/02 14:16:59;;;;;;;13.02;3.50;;;;;26.50;101509.00;;;;10508529;28;20209;-75
2023/06/02 14:22:01;;;;;;;8.18;3.67;;;;;26.40;101494.00;;;;10519924;28;20263;-74
2023/06/02 14:27:04;;;;;;;7.53;3.75;;;;;26.40;101493.00;;;;10504050;28;20559;-75
2023/06/02 14:32:07;;;;;;;8.52;3.30;;;;;26.70;101492.00;;;;10513780;28;20251;-74
2023/06/02 14:37:09;;;;;;;8.80;3.17;;;;;26.80;101490.00;;;;10521036;28;20232;-74
2023/06/02 14:42:11;;;;;;;11.63;3.25;;;;;27.30;101480.00;;;;10524144;28;20202;-74
2023/06/02 14:47:13;;;;;;;9.13;3.70;;;;;27.60;101481.00;;;;10524687;28;20220;-74
2023/06/02 14:52:15;;;;;;;14.18;4.80;;;;;28.20;101474.00;;;;10506670;28;20212;-74
2023/06/02 14:57:17;;;;;;;17.23;4.22;;;;;29.00;101468.00;;;;10529004;28;20205;-76
2023/06/02 15:02:20;;;;;;;10.35;4.25;;;;;30.10;101463.00;;;;10519994;28;20729;-75
2023/06/02 15:07:22;;;;;;;14.23;4.72;;;;;30.90;101461.00;;;;10516059;28;20604;-76
2023/06/02 15:12:24;;;;;;;11.23;3.78;;;;;31.50;101467.00;;;;10516474;28;20241;-76
2023/06/02 15:17:27;;;;;;;11.60;3.80;;;;;32.30;101458.00;;;;10526176;28;20196;-75
2023/06/02 15:22:30;;;;;;;12.98;4.03;;;;;32.70;101453.00;;;;10534180;27;20251;-75
2023/06/02 15:27:35;;;;;;;7.72;3.60;;;;;32.70;101439.00;;;;10525931;28;20202;-75
2023/06/02 15:32:37;;;;;;;9.65;4.18;;;;;28.50;101459.00;;;;10512740;28;20209;-76
2023/06/02 15:37:39;;;;;;;12.85;4.35;;;;;26.30;101451.00;;;;10507553;28;20204;-75
2023/06/02 15:42:41;;;;;;;8.13;4.22;;;;;25.80;101447.00;;;;10526496;28;20251;-73
2023/06/02 15:47:43;;;;;;;9.38;3.90;;;;;24.60;101442.00;;;;10531606;28;20250;-73
2023/06/02 15:52:46;;;;;;;8.45;4.10;;;;;23.70;101442.00;;;;10540417;28;20703;-73
2023/06/02 15:57:57;;;;;;;12.52;3.90;;;;;23.30;101437.00;;;;10501484;28;20201;-74
2023/06/02 16:03:01;;;;;;;10.65;4.05;;;;;22.70;101433.00;;;;10502893;28;20197;-73
2023/06/02 16:08:04;;;;;;;12.77;4.00;;;;;22.50;101438.00;;;;10503374;28;20194;-73
2023/06/02 16:13:05;;;;;;;12.70;3.70;;;;;22.20;101431.00;;;;10501927;28;20705;-74
2023/06/02 16:18:07;;;;;;;8.20;3.30;;;;;22.20;101428.00;;;;10501331;28;20205;-74
2023/06/02 16:23:10;;;;;;;6.25;3.03;;;;;22.10;101428.00;;;;10501683;28;20194;-75
2023/06/02 16:28:11;;;;;;;11.10;5.35;;;;;21.90;101427.00;;;;10501877;28;20327;-72
2023/06/02 16:33:14;;;;;;;11.25;4.05;;;;;21.80;101423.00;;;;10501004;28;20312;-73
2023/06/02 16:38:16;;;;;;;8.40;3.70;;;;;21.60;101427.00;;;;10498070;28;20202;-72
2023/06/02 16:43:19;;;;;;;12.27;4.00;;;;;21.70;101431.00;;;;10483878;28;20198;-72
2023/06/02 16:48:21;;;;;;;7.72;4.07;;;;;22.00;101437.00;;;;10505718;28;20732;-73
2023/06/02 16:53:27;;;;;;;11.60;3.97;;;;;21.70;101440.00;;;;10475995;28;20288;-73
2023/06/02 16:58:29;;;;;;;10.48;4.10;;;;;21.50;101430.00;;;;10501184;28;20257;-73
2023/06/02 17:03:35;;;;;;;11.20;3.53;;;;;21.40;101432.00;;;;10495460;28;20217;-73
2023/06/02 17:08:37;;;;;;;9.43;4.20;;;;;21.40;101421.00;;;;10497819;28;20209;-74
2023/06/02 17:13:39;;;;;;;11.15;4.15;;;;;21.00;101429.00;;;;10498569;28;20700;-72
2023/06/02 17:18:42;;;;;;;11.32;3.97;;;;;20.80;101424.00;;;;10498506;28;20212;-74
2023/06/02 17:23:44;;;;;;;12.05;3.92;;;;;20.60;101419.00;;;;10498360;28;20582;-74
2023/06/02 17:28:46;;;;;;;11.88;3.78;;;;;20.70;101433.00;;;;10486806;28;20223;-77
2023/06/02 17:33:48;;;;;;;10.65;4.25;;;;;20.60;101425.00;;;;10473165;28;20447;-76
2023/06/02 17:38:51;;;;;;;12.80;3.85;;;;;20.50;101429.00;;;;10450609;28;20205;-76
2023/06/02 17:43:54;;;;;;;9.50;3.78;;;;;20.60;101426.00;;;;10448061;28;20197;-76
2023/06/02 17:48:56;;;;;;;12.45;4.00;;;;;20.60;101426.00;;;;10511958;28;20229;-76
2023/06/02 17:53:58;;;;;;;8.65;3.58;;;;;20.50;101418.00;;;;10513093;28;20298;-76
2023/06/02 17:59:00;;;;;;;9.90;4.20;;;;;20.40;101423.00;;;;10518975;28;20197;-76
2023/06/02 18:04:02;;;;;;;9.45;3.78;;;;;20.20;101433.00;;;;10514242;28;20254;-75
2023/06/02 18:09:06;;;;;;;9.40;4.05;;;;;19.90;101432.00;;;;10511855;28;20205;-76
2023/06/02 18:14:09;;;;;;;9.70;3.70;;;;;19.90;101436.00;;;;10518372;28;20300;-76
2023/06/02 18:19:11;;;;;;;9.52;3.50;;;;;19.60;101434.00;;;;10533644;28;20194;-76
2023/06/02 18:24:13;;;;;;;11.25;3.33;;;;;19.50;101427.00;;;;10523003;28;20263;-76
2023/06/02 18:29:16;;;;;;;8.02;3.60;;;;;19.40;101435.00;;;;10515644;28;20602;-76
2023/06/02 18:34:18;;;;;;;11.10;3.33;;;;;19.30;101428.00;;;;10516278;28;20281;-75
2023/06/02 18:39:20;;;;;;;10.48;3.88;;;;;19.20;101427.00;;;;10507464;28;21200;-77
2023/06/02 18:44:23;;;;;;;9.13;4.25;;;;;19.10;101422.00;;;;10533350;28;20306;-76
2023/06/02 18:49:25;;;;;;;8.93;3.50;;;;;19.00;101435.00;;;;10524988;28;20330;-76
2023/06/02 18:54:28;;;;;;;9.25;3.60;;;;;18.80;101434.00;;;;10522357;28;20217;-75
2023/06/02 18:59:31;;;;;;;7.47;3.20;;;;;18.60;101435.00;;;;10526627;28;20613;-76
2023/06/02 19:04:33;;;;;;;9.68;4.18;;;;;18.40;101431.00;;;;10532738;28;20260;-76
2023/06/02 19:09:35;;;;;;;11.00;3.42;;;;;18.30;101433.00;;;;10547768;28;20192;-76
2023/06/02 19:14:37;;;;;;;8.65;3.42;;;;;18.10;101433.00;;;;10546469;28;20223;-76
2023/06/02 19:19:40;;;;;;;13.25;3.75;;;;;17.90;101434.00;;;;10544238;28;20204;-76
2023/06/02 19:24:44;;;;;;;10.90;4.32;;;;;17.80;101433.00;;;;10562911;27;20293;-76
2023/06/02 19:29:49;;;;;;;13.40;3.95;;;;;17.60;101431.00;;;;10544713;28;20588;-76
2023/06/02 19:34:51;;;;;;;8.50;3.90;;;;;17.40;101433.00;;;;10546365;28;20295;-76
2023/06/02 19:39:53;;;;;;;11.00;3.90;;;;;17.20;101434.00;;;;10545596;28;20639;-76
2023/06/02 19:44:56;;;;;;;8.55;3.53;;;;;17.00;101444.00;;;;10546018;28;20227;-76
2023/06/02 19:49:58;;;;;;;7.75;3.53;;;;;16.90;101447.00;;;;10529336;28;20238;-77
2023/06/02 19:55:01;;;;;;;13.70;3.60;;;;;16.70;101438.00;;;;10535684;28;20221;-76
2023/06/02 20:00:04;;;;;;;14.63;4.28;;;;;16.50;101440.00;;;;10545417;28;20185;-76
2023/06/02 20:05:10;;;;;;;8.38;3.10;;;;;16.40;101454.00;;;;10545194;28;20272;-76
2023/06/02 20:10:13;;;;;;;14.75;4.13;;;;;16.20;101465.00;;;;10560098;27;20208;-76
2023/06/02 20:15:15;;;;;;;9.43;3.15;;;;;16.00;101462.00;;;;10532728;28;20273;-76
2023/06/02 20:20:17;;;;;;;11.13;3.80;;;;;15.80;101464.00;;;;10542658;28;20196;-76
2023/06/02 20:25:19;;;;;;;12.32;3.95;;;;;15.70;101473.00;;;;10542401;28;20192;-75
2023/06/02 20:30:22;;;;;;;11.23;3.37;;;;;15.50;101475.00;;;;10539397;28;20224;-75
2023/06/02 20:35:24;;;;;;;8.52;4.05;;;;;15.40;101472.00;;;;10529764;28;20217;-76
2023/06/02 20:40:26;;;;;;;7.27;3.60;;;;;15.30;101489.00;;;;10508015;28;20725;-75
2023/06/02 20:45:28;;;;;;;7.53;3.20;;;;;15.10;101476.00;;;;10501515;28;20185;-75
2023/06/02 20:50:30;;;;;;;12.80;3.50;;;;;15.00;101479.00;;;;10499756;28;20212;-74
2023/06/02 20:55:33;;;;;;;10.33;3.70;;;;;14.80;101482.00;;;;10501376;28;20248;-75
2023/06/02 21:00:35;;;;;;;7.67;4.57;;;;;14.70;101471.00;;;;10501052;28;20202;-75
2023/06/02 21:05:37;;;;;;;8.97;4.33;;;;;14.60;101480.00;;;;10499395;28;20292;-76
2023/06/02 21:10:42;;;;;;;8.93;4.17;;;;;14.50;101481.00;;;;10500421;28;20661;-75
2023/06/02 21:15:44;;;;;;;9.40;3.77;;;;;14.40;101487.00;;;;10500047;28;20228;-75
2023/06/02 21:20:46;;;;;;;10.13;3.77;;;;;14.30;101489.00;;;;10500044;28;20198;-74
2023/06/02 21:25:48;;;;;;;13.80;4.27;;;;;14.30;101485.00;;;;10469291;28;20207;-75
2023/06/02 21:30:50;;;;;;;13.67;3.83;;;;;14.30;101484.00;;;;10501209;28;20220;-75
2023/06/02 21:35:52;;;;;;;9.03;4.20;;;;;14.30;101489.00;;;;10500659;28;20217;-75
2023/06/02 21:40:57;;;;;;;8.10;3.53;;;;;14.20;101491.00;;;;10500011;28;20197;-76
2023/06/02 21:46:00;;;;;;;10.63;4.13;;;;;14.20;101490.00;;;;10494239;28;20196;-76
2023/06/02 21:51:02;;;;;;;10.93;4.00;;;;;14.20;101487.00;;;;10480518;28;20209;-76
2023/06/02 21:56:05;;;;;;;12.23;3.80;;;;;14.10;101490.00;;;;10489689;28;20259;-76
2023/06/02 22:01:07;;;;;;;17.83;4.57;;;;;14.10;101477.00;;;;10507156;28;20209;-77
2023/06/02 22:06:09;;;;;;;7.87;3.93;;;;;14.00;101482.00;;;;10504908;28;20721;-74
2023/06/02 22:11:12;;;;;;;9.87;4.13;;;;;13.90;101488.00;;;;10480769;28;20237;-74
2023/06/02 22:16:14;;;;;;;16.77;5.00;;;;;13.90;101491.00;;;;10495042;28;20300;-75
2023/06/02 22:21:16;;;;;;;13.23;4.73;;;;;13.80;101485.00;;;;10506367;28;20198;-74
2023/06/02 22:26:30;;;;;;;12.90;4.90;;;;;13.80;101492.00;;;;10505682;28;20201;-74
2023/06/02 22:31:32;;;;;;;11.93;4.77;;;;;13.70;101489.00;;;;10502325;28;20185;-75
2023/06/02 22:36:34;;;;;;;17.97;5.17;;;;;13.60;101492.00;;;;10469293;28;20286;-74
2023/06/02 22:41:36;;;;;;;9.83;5.23;;;;;13.60;101496.00;;;;10502968;28;20292;-76
2023/06/02 22:46:38;;;;;;;12.87;4.87;;;;;13.50;101496.00;;;;10487286;28;20253;-75
2023/06/02 22:51:41;;;;;;;13.43;5.43;;;;;13.40;101501.00;;;;10490413;28;20205;-74
2023/06/02 22:56:43;;;;;;;14.97;5.67;;;;;13.40;101502.00;;;;10483560;28;20212;-75
2023/06/02 23:01:45;;;;;;;16.87;6.37;;;;;13.30;101494.00;;;;10501441;28;20193;-75
2023/06/02 23:06:47;;;;;;;14.90;5.27;;;;;13.20;101502.00;;;;10500301;28;20221;-74
2023/06/02 23:11:49;;;;;;;17.83;5.43;;;;;13.10;101498.00;;;;10500309;28;20205;-75
2023/06/02 23:16:51;;;;;;;9.57;5.50;;;;;13.00;101493.00;;;;10500843;28;20221;-75
2023/06/02 23:21:53;;;;;;;14.93;5.73;;;;;12.90;101490.00;;;;10491881;28;20304;-74
2023/06/02 23:26:55;;;;;;;17.80;5.47;;;;;12.90;101503.00;;;;10500117;28;20199;-75
2023/06/02 23:31:57;;;;;;;14.30;5.40;;;;;12.80;101498.00;;;;10499536;28;20284;-75
2023/06/02 23:37:00;;;;;;;13.60;5.07;;;;;12.70;101496.00;;;;10500820;28;20208;-74
2023/06/02 23:42:02;;;;;;;13.00;5.43;;;;;12.70;101505.00;;;;10500386;28;20567;-75
2023/06/02 23:47:04;;;;;;;13.30;5.07;;;;;12.60;101496.00;;;;10502056;28;20204;-75
2023/06/02 23:52:06;;;;;;;12.67;6.50;;;;;12.60;101502.00;;;;10470213;28;20206;-75
2023/06/02 23:57:08;;;;;;;14.07;5.40;;;;;12.50;101502.00;;;;10509520;28;20202;-75
